createdAt,value
2019-03-20T00:02:04.846Z,4.17
2019-03-20T00:04:35.596Z,5.13
2019-03-20T00:07:06.536Z,4.10
2019-03-20T00:09:38.457Z,4.30
2019-03-20T00:12:12.414Z,4.67
2019-03-20T00:14:43.197Z,4.83
2019-03-20T00:17:14.210Z,4.40
2019-03-20T00:19:46.354Z,3.80
2019-03-20T00:22:22.942Z,4.23
2019-03-20T00:24:53.467Z,4.00
2019-03-20T00:27:24.702Z,3.90
2019-03-20T00:29:55.630Z,4.23
2019-03-20T00:32:26.942Z,4.60
2019-03-20T00:35:01.075Z,3.60
2019-03-20T00:37:33.785Z,3.97
2019-03-20T00:40:07.799Z,3.57
2019-03-20T00:42:40.468Z,4.13
2019-03-20T00:45:12.476Z,4.13
2019-03-20T00:47:43.287Z,3.63
2019-03-20T00:50:15.730Z,3.53
2019-03-20T00:52:46.662Z,4.03
2019-03-20T00:55:27.130Z,3.87
2019-03-20T00:57:58.170Z,3.80
2019-03-20T01:00:29.268Z,3.63
2019-03-20T01:03:00.111Z,3.47
2019-03-20T01:05:30.975Z,3.70
2019-03-20T01:08:03.087Z,3.73
2019-03-20T01:10:33.886Z,3.83
2019-03-20T01:13:04.863Z,3.80
2019-03-20T01:15:35.704Z,3.67
2019-03-20T01:18:09.650Z,4.10
2019-03-20T01:20:41.258Z,3.93
2019-03-20T01:23:12.260Z,4.80
2019-03-20T01:25:43.053Z,4.43
2019-03-20T01:28:15.937Z,3.13
2019-03-20T01:30:46.867Z,3.60
2019-03-20T01:33:17.668Z,3.40
2019-03-20T01:35:48.515Z,3.50
2019-03-20T01:38:20.633Z,3.00
2019-03-20T01:40:51.526Z,3.50
2019-03-20T01:43:22.390Z,3.70
2019-03-20T01:45:53.205Z,4.00
2019-03-20T01:48:31.666Z,3.43
2019-03-20T01:51:33.792Z,3.10
2019-03-20T01:54:04.619Z,3.77
2019-03-20T01:56:35.468Z,4.10
2019-03-20T01:59:06.157Z,4.00
2019-03-20T02:01:37.097Z,3.33
2019-03-20T02:04:09.553Z,4.23
2019-03-20T02:06:40.456Z,3.43
2019-03-20T02:09:11.648Z,3.23
2019-03-20T02:11:42.571Z,3.80
2019-03-20T02:14:13.365Z,3.90
2019-03-20T02:16:44.208Z,4.23
2019-03-20T02:19:25.285Z,3.40
2019-03-20T02:21:56.182Z,3.30
2019-03-20T02:24:27.191Z,3.67
2019-03-20T02:27:04.784Z,3.90
2019-03-20T02:29:38.706Z,3.40
2019-03-20T02:32:09.504Z,2.97
2019-03-20T02:34:41.664Z,4.70
2019-03-20T02:37:12.532Z,3.03
2019-03-20T02:39:43.329Z,3.23
2019-03-20T02:42:14.155Z,3.80
2019-03-20T02:44:53.895Z,3.03
2019-03-20T02:47:27.667Z,2.63
2019-03-20T02:49:58.819Z,3.40
2019-03-20T02:52:30.803Z,3.37
2019-03-20T02:55:01.641Z,3.80
2019-03-20T02:57:32.355Z,3.80
2019-03-20T03:00:08.337Z,3.23
2019-03-20T03:02:39.468Z,4.47
2019-03-20T03:05:11.092Z,3.07
2019-03-20T03:07:42.010Z,3.73
2019-03-20T03:10:15.134Z,3.80
2019-03-20T03:12:46.106Z,3.30
2019-03-20T03:15:17.252Z,3.03
2019-03-20T03:17:48.353Z,3.73
2019-03-20T03:20:19.927Z,3.43
2019-03-20T03:22:50.837Z,3.03
2019-03-20T03:25:21.662Z,3.10
2019-03-20T03:27:56.392Z,3.10
2019-03-20T03:30:27.265Z,3.50
2019-03-20T03:32:58.452Z,3.50
2019-03-20T03:35:30.137Z,4.07
2019-03-20T03:38:01.207Z,3.17
2019-03-20T03:40:32.455Z,3.40
2019-03-20T03:43:07.147Z,3.83
2019-03-20T03:45:38.242Z,3.73
2019-03-20T03:48:18.774Z,3.73
2019-03-20T03:50:48.365Z,3.53
2019-03-20T03:53:20.998Z,4.00
2019-03-20T03:55:52.278Z,4.13
2019-03-20T03:58:23.311Z,3.23
2019-03-20T04:00:54.337Z,3.37
2019-03-20T04:03:33.134Z,3.43
2019-03-20T04:06:04.099Z,3.57
2019-03-20T04:08:35.099Z,3.30
2019-03-20T04:11:06.682Z,3.27
2019-03-20T04:13:38.705Z,3.10
2019-03-20T04:16:12.493Z,3.23
2019-03-20T04:18:43.515Z,3.27
2019-03-20T04:21:15.725Z,3.37
2019-03-20T04:23:46.764Z,2.97
2019-03-20T04:26:17.572Z,3.37
2019-03-20T04:28:48.376Z,3.30
2019-03-20T04:31:19.187Z,3.40
2019-03-20T04:33:49.903Z,4.13
2019-03-20T04:36:21.023Z,4.33
2019-03-20T04:38:53.355Z,4.23
2019-03-20T04:41:24.192Z,4.67
2019-03-20T04:43:59.675Z,4.40
2019-03-20T04:46:30.505Z,4.23
2019-03-20T04:49:01.505Z,3.77
2019-03-20T04:51:32.713Z,3.60
2019-03-20T04:54:07.121Z,5.93
2019-03-20T04:56:37.981Z,4.60
2019-03-20T04:59:08.832Z,4.00
2019-03-20T05:01:39.790Z,3.47
2019-03-20T05:04:10.615Z,3.87
2019-03-20T05:06:41.520Z,3.63
2019-03-20T05:09:13.861Z,4.07
2019-03-20T05:11:44.714Z,3.70
2019-03-20T05:14:15.596Z,3.57
2019-03-20T05:16:48.075Z,3.47
2019-03-20T05:19:19.134Z,3.37
2019-03-20T05:21:56.297Z,3.40
2019-03-20T05:24:28.511Z,3.43
2019-03-20T05:27:00.605Z,3.20
2019-03-20T05:29:31.358Z,2.97
2019-03-20T05:32:03.455Z,4.00
2019-03-20T05:34:34.638Z,4.20
2019-03-20T05:37:10.430Z,4.00
2019-03-20T05:39:38.134Z,3.30
2019-03-20T05:42:09.259Z,3.57
2019-03-20T05:44:40.184Z,4.07
2019-03-20T05:47:11.176Z,3.57
2019-03-20T05:49:42.056Z,3.47
2019-03-20T05:52:12.938Z,3.10
2019-03-20T05:54:43.977Z,3.13
2019-03-20T05:57:14.913Z,3.80
2019-03-20T05:59:45.746Z,3.10
2019-03-20T06:02:16.602Z,3.00
2019-03-20T06:04:50.636Z,3.57
2019-03-20T06:07:22.106Z,3.60
2019-03-20T06:09:53.197Z,3.07
2019-03-20T06:12:24.208Z,3.73
2019-03-20T06:14:55.291Z,3.63
2019-03-20T06:17:27.378Z,3.60
2019-03-20T06:19:58.632Z,4.40
2019-03-20T06:22:29.350Z,4.33
2019-03-20T06:25:00.356Z,4.40
2019-03-20T06:27:37.229Z,4.00
2019-03-20T06:30:25.811Z,4.13
2019-03-20T06:32:56.722Z,3.77
2019-03-20T06:35:28.936Z,3.80
2019-03-20T06:37:59.859Z,3.33
2019-03-20T06:40:30.720Z,3.67
2019-03-20T06:43:02.216Z,3.73
2019-03-20T06:45:36.177Z,4.13
2019-03-20T06:48:10.108Z,3.70
2019-03-20T06:50:41.257Z,3.20
2019-03-20T06:53:13.665Z,3.70
2019-03-20T06:55:44.407Z,3.50
2019-03-20T06:58:15.426Z,4.27
2019-03-20T07:01:02.250Z,4.13
2019-03-20T07:03:40.707Z,3.87
2019-03-20T07:06:25.422Z,3.57
2019-03-20T07:09:05.247Z,4.30
2019-03-20T07:11:39.628Z,3.50
2019-03-20T07:14:11.527Z,4.13
2019-03-20T07:16:42.427Z,3.63
2019-03-20T07:19:14.552Z,3.73
2019-03-20T07:21:45.358Z,3.73
2019-03-20T07:24:16.305Z,3.80
2019-03-20T07:26:47.161Z,3.70
2019-03-20T07:29:18.227Z,3.37
2019-03-20T07:31:49.292Z,3.23
2019-03-20T07:34:20.398Z,3.70
2019-03-20T07:36:53.650Z,3.37
2019-03-20T07:39:24.450Z,3.70
2019-03-20T07:41:55.567Z,3.13
2019-03-20T07:44:28.534Z,3.83
2019-03-20T07:47:02.116Z,3.47
2019-03-20T07:49:33.410Z,3.90
2019-03-20T07:52:08.132Z,3.77
2019-03-20T07:54:43.555Z,3.23
2019-03-20T07:57:16.205Z,4.63
2019-03-20T07:59:47.097Z,3.77
2019-03-20T08:02:20.111Z,3.83
2019-03-20T08:04:50.967Z,3.80
2019-03-20T08:07:22.037Z,3.90
2019-03-20T08:09:54.730Z,3.73
2019-03-20T08:12:26.104Z,3.30
2019-03-20T08:14:57.119Z,3.53
2019-03-20T08:17:31.135Z,3.63
2019-03-20T08:20:04.756Z,3.30
2019-03-20T08:22:35.550Z,3.50
2019-03-20T08:25:07.052Z,3.43
2019-03-20T08:27:37.841Z,3.33
2019-03-20T08:30:14.342Z,3.77
2019-03-20T08:32:54.108Z,3.30
2019-03-20T08:35:26.575Z,2.93
2019-03-20T08:37:57.475Z,3.40
2019-03-20T08:40:28.702Z,3.47
2019-03-20T08:43:00.669Z,2.77
2019-03-20T08:45:31.553Z,3.37
2019-03-20T08:48:02.339Z,3.30
2019-03-20T08:50:34.282Z,3.67
2019-03-20T08:53:06.947Z,3.70
2019-03-20T08:55:37.949Z,3.40
2019-03-20T08:58:09.317Z,3.07
2019-03-20T09:00:42.050Z,3.70
2019-03-20T09:03:17.646Z,4.40
2019-03-20T09:06:05.746Z,3.63
2019-03-20T09:08:58.925Z,2.70
2019-03-20T09:11:32.963Z,3.20
2019-03-20T09:14:03.938Z,3.13
2019-03-20T09:16:34.942Z,3.57
2019-03-20T09:19:05.859Z,3.10
2019-03-20T09:21:36.834Z,3.47
2019-03-20T09:24:07.596Z,3.17
2019-03-20T09:26:43.127Z,3.73
2019-03-20T09:29:18.766Z,3.40
2019-03-20T09:31:48.063Z,3.03
2019-03-20T09:34:18.892Z,2.53
2019-03-20T09:36:51.466Z,3.40
2019-03-20T09:39:23.230Z,2.70
2019-03-20T09:41:54.230Z,3.13
2019-03-20T09:44:28.253Z,2.40
2019-03-20T09:46:59.057Z,2.63
2019-03-20T09:49:30.281Z,2.30
2019-03-20T09:52:06.582Z,2.63
2019-03-20T09:54:37.412Z,2.70
2019-03-20T09:57:10.929Z,2.13
2019-03-20T09:59:45.866Z,2.87
2019-03-20T10:02:16.089Z,3.57
2019-03-20T10:04:53.147Z,2.63
2019-03-20T10:07:51.919Z,2.70
2019-03-20T10:10:23.681Z,3.27
2019-03-20T10:12:59.093Z,2.97
2019-03-20T10:15:36.088Z,2.30
2019-03-20T10:18:08.362Z,2.70
2019-03-20T10:20:40.607Z,3.00
2019-03-20T10:23:11.836Z,2.57
2019-03-20T10:25:44.752Z,2.60
2019-03-20T10:28:15.807Z,2.50
2019-03-20T10:30:46.992Z,3.03
2019-03-20T10:33:18.240Z,2.23
2019-03-20T10:35:50.451Z,2.73
2019-03-20T10:38:21.512Z,2.67
2019-03-20T10:40:54.188Z,3.03
2019-03-20T10:43:25.078Z,3.10
2019-03-20T10:46:00.208Z,2.67
2019-03-20T10:48:31.057Z,3.03
2019-03-20T10:51:06.535Z,2.70
2019-03-20T10:53:45.101Z,3.10
2019-03-20T10:56:18.921Z,3.73
2019-03-20T10:58:53.827Z,2.53
2019-03-20T11:01:29.755Z,2.40
2019-03-20T11:04:02.579Z,3.80
2019-03-20T11:06:34.084Z,2.30
2019-03-20T11:09:18.325Z,2.40
2019-03-20T11:11:46.041Z,2.80
2019-03-20T11:14:16.872Z,2.40
2019-03-20T11:16:50.735Z,2.40
2019-03-20T11:19:21.633Z,2.50
2019-03-20T11:21:54.219Z,2.90
2019-03-20T11:24:26.819Z,2.20
2019-03-20T11:26:57.528Z,3.37
2019-03-20T11:29:32.658Z,2.17
2019-03-20T11:32:05.626Z,2.80
2019-03-20T11:34:39.990Z,2.80
2019-03-20T11:37:13.285Z,2.43
2019-03-20T11:39:44.137Z,2.57
2019-03-20T11:42:17.346Z,2.63
2019-03-20T11:44:48.687Z,2.30
2019-03-20T11:47:20.118Z,2.43
2019-03-20T11:49:53.896Z,2.33
2019-03-20T11:52:24.764Z,2.80
2019-03-20T11:54:56.041Z,2.53
2019-03-20T11:57:33.423Z,3.07
2019-03-20T12:00:04.546Z,2.40
2019-03-20T12:02:36.895Z,2.53
2019-03-20T12:05:09.169Z,2.23
2019-03-20T12:07:41.549Z,2.60
2019-03-20T12:10:21.614Z,2.47
2019-03-20T12:12:52.906Z,2.73
2019-03-20T12:15:33.755Z,2.03
2019-03-20T12:18:06.452Z,1.70
2019-03-20T12:20:37.232Z,2.60
2019-03-20T12:23:08.416Z,2.40
2019-03-20T12:25:40.782Z,2.10
2019-03-20T12:28:12.093Z,2.80
2019-03-20T12:30:45.822Z,1.93
2019-03-20T12:33:16.855Z,2.53
2019-03-20T12:35:57.649Z,1.67
2019-03-20T12:38:28.795Z,2.30
2019-03-20T12:41:06.340Z,2.50
2019-03-20T12:43:39.818Z,2.03
2019-03-20T12:46:12.791Z,2.50
2019-03-20T12:48:48.800Z,2.17
2019-03-20T12:51:21.080Z,2.63
2019-03-20T12:53:51.963Z,2.20
2019-03-20T12:56:25.587Z,2.20
2019-03-20T12:58:56.320Z,1.97
2019-03-20T13:01:33.243Z,1.77
2019-03-20T13:04:03.966Z,2.90
2019-03-20T13:06:38.523Z,2.10
2019-03-20T13:09:14.748Z,2.17
2019-03-20T13:11:45.623Z,2.23
2019-03-20T13:14:16.982Z,2.10
2019-03-20T13:16:52.082Z,1.83
2019-03-20T13:19:26.279Z,2.30
2019-03-20T13:21:58.761Z,1.70
2019-03-20T13:24:32.134Z,1.77
2019-03-20T13:27:02.947Z,1.80
2019-03-20T13:29:34.402Z,1.50
2019-03-20T13:32:08.879Z,1.60
2019-03-20T13:34:42.678Z,2.17
2019-03-20T13:37:20.874Z,2.40
2019-03-20T13:40:01.740Z,1.57
2019-03-20T13:42:32.843Z,2.10
2019-03-20T13:45:04.283Z,1.83
2019-03-20T13:47:35.496Z,1.93
2019-03-20T13:50:07.151Z,1.77
2019-03-20T13:52:45.081Z,1.90
2019-03-20T13:55:16.615Z,1.83
2019-03-20T13:57:47.983Z,1.83
2019-03-20T14:00:20.526Z,1.60
2019-03-20T14:02:56.407Z,1.53
2019-03-20T14:05:29.740Z,2.13
2019-03-20T14:08:03.092Z,1.47
2019-03-20T14:10:49.591Z,2.67
2019-03-20T14:13:07.004Z,2.13
2019-03-20T14:15:39.322Z,2.23
2019-03-20T14:18:10.324Z,2.57
2019-03-20T14:20:41.457Z,1.90
2019-03-20T14:23:12.563Z,2.40
2019-03-20T14:25:44.223Z,2.60
2019-03-20T14:28:18.330Z,2.23
2019-03-20T14:30:50.709Z,2.07
2019-03-20T14:33:21.804Z,2.10
2019-03-20T14:35:55.925Z,1.83
2019-03-20T14:38:28.032Z,1.67
2019-03-20T14:40:59.099Z,2.27
2019-03-20T14:43:29.882Z,3.73
2019-03-20T14:46:01.007Z,2.27
2019-03-20T14:48:35.123Z,1.60
2019-03-20T14:51:15.177Z,1.90
2019-03-20T14:53:47.769Z,1.67
2019-03-20T14:56:22.000Z,1.67
2019-03-20T14:58:52.859Z,2.00
2019-03-20T15:01:23.582Z,1.53
2019-03-20T15:03:54.494Z,2.00
2019-03-20T15:06:25.633Z,3.30
2019-03-20T15:08:59.447Z,2.20
2019-03-20T15:11:31.597Z,2.20
2019-03-20T15:14:04.589Z,2.50
2019-03-20T15:16:35.628Z,3.17
2019-03-20T15:19:08.869Z,2.77
2019-03-20T15:21:39.738Z,3.27
2019-03-20T15:24:11.938Z,1.80
2019-03-20T15:26:45.081Z,2.00
2019-03-20T15:29:22.352Z,3.13
2019-03-20T15:31:56.660Z,3.03
2019-03-20T15:34:34.075Z,1.70
2019-03-20T15:37:05.084Z,1.83
2019-03-20T15:39:35.949Z,1.63
2019-03-20T15:42:09.841Z,1.30
2019-03-20T15:44:44.988Z,1.40
2019-03-20T15:47:18.948Z,1.77
2019-03-20T15:49:51.911Z,1.50
2019-03-20T15:52:24.941Z,1.30
2019-03-20T15:54:58.486Z,1.67
2019-03-20T15:57:29.591Z,1.30
2019-03-20T16:00:00.975Z,1.90
2019-03-20T16:02:34.157Z,1.17
2019-03-20T16:05:05.214Z,9.87
2019-03-20T16:07:39.947Z,1.50
2019-03-20T16:10:13.951Z,1.50
2019-03-20T16:12:47.164Z,1.70
2019-03-20T16:15:19.538Z,1.47
2019-03-20T16:17:54.927Z,1.30
2019-03-20T16:20:31.668Z,1.90
2019-03-20T16:23:06.108Z,1.10
2019-03-20T16:25:38.829Z,1.70
2019-03-20T16:28:10.073Z,1.00
2019-03-20T16:30:45.080Z,1.80
2019-03-20T16:33:17.304Z,1.07
2019-03-20T16:35:54.494Z,1.30
2019-03-20T16:38:25.533Z,1.50
2019-03-20T16:40:56.377Z,1.30
2019-03-20T16:43:27.555Z,1.00
2019-03-20T16:45:58.354Z,1.20
2019-03-20T16:48:29.527Z,1.20
2019-03-20T16:51:00.363Z,1.30
2019-03-20T16:53:33.481Z,2.03
2019-03-20T16:56:05.080Z,1.10
2019-03-20T16:58:39.965Z,1.47
2019-03-20T17:01:27.776Z,1.80
2019-03-20T17:04:01.369Z,1.43
2019-03-20T17:06:41.806Z,1.43
2019-03-20T17:09:12.589Z,1.57
2019-03-20T17:11:46.444Z,1.23
2019-03-20T17:14:20.306Z,1.57
2019-03-20T17:16:56.603Z,1.83
2019-03-20T17:19:31.358Z,2.00
2019-03-20T17:22:02.241Z,2.50
2019-03-20T17:24:38.539Z,2.23
2019-03-20T17:27:17.424Z,1.93
2019-03-20T17:29:48.402Z,1.33
2019-03-20T17:32:21.610Z,14.33
2019-03-20T17:34:53.660Z,10.17
2019-03-20T17:37:28.130Z,9.57
2019-03-20T17:40:00.307Z,8.17
2019-03-20T17:42:34.135Z,6.27
2019-03-20T17:45:05.689Z,4.07
2019-03-20T17:47:36.850Z,1.90
2019-03-20T17:50:11.262Z,2.77
2019-03-20T17:53:06.608Z,2.03
2019-03-20T17:55:58.716Z,1.97
2019-03-20T17:58:30.123Z,1.80
2019-03-20T18:01:01.102Z,1.70
2019-03-20T18:03:36.969Z,2.37
2019-03-20T18:06:08.502Z,2.00
2019-03-20T18:08:39.514Z,2.60
2019-03-20T18:11:15.750Z,2.33
2019-03-20T18:13:50.038Z,1.60
2019-03-20T18:16:23.750Z,1.70
2019-03-20T18:18:57.605Z,1.70
2019-03-20T18:21:50.258Z,2.20
2019-03-20T18:24:27.933Z,1.83
2019-03-20T18:27:06.453Z,2.00
2019-03-20T18:29:43.305Z,2.10
2019-03-20T18:32:15.669Z,1.90
2019-03-20T18:34:52.108Z,1.90
2019-03-20T18:37:25.018Z,1.37
2019-03-20T18:39:56.098Z,1.73
2019-03-20T18:42:39.403Z,1.77
2019-03-20T18:45:14.143Z,1.40
2019-03-20T18:47:46.954Z,2.10
2019-03-20T18:50:21.977Z,2.43
2019-03-20T18:52:59.796Z,2.70
2019-03-20T18:55:31.260Z,3.00
2019-03-20T18:58:03.808Z,2.63
2019-03-20T19:00:40.032Z,2.37
2019-03-20T19:03:26.934Z,2.47
2019-03-20T19:06:06.668Z,2.47
2019-03-20T19:08:37.826Z,2.23
2019-03-20T19:11:12.578Z,2.53
2019-03-20T19:13:44.438Z,2.43
2019-03-20T19:16:18.421Z,3.30
2019-03-20T19:18:49.267Z,1.90
2019-03-20T19:21:21.458Z,2.00
2019-03-20T19:23:56.106Z,1.60
2019-03-20T19:26:27.455Z,2.37
2019-03-20T19:29:01.839Z,2.57
2019-03-20T19:31:39.107Z,2.03
2019-03-20T19:34:13.560Z,2.53
2019-03-20T19:36:44.516Z,2.10
2019-03-20T19:39:16.048Z,2.50
2019-03-20T19:41:48.138Z,2.43
2019-03-20T19:44:24.302Z,2.67
2019-03-20T19:46:55.016Z,3.03
2019-03-20T19:49:31.102Z,2.80
2019-03-20T19:52:02.395Z,3.00
2019-03-20T19:54:34.098Z,2.97
2019-03-20T19:57:09.565Z,3.13
2019-03-20T19:59:42.838Z,2.70
2019-03-20T20:02:33.485Z,3.60
2019-03-20T20:05:15.026Z,4.13
2019-03-20T20:07:41.089Z,3.93
2019-03-20T20:10:22.548Z,4.20
2019-03-20T20:12:59.110Z,4.37
2019-03-20T20:15:36.318Z,3.33
2019-03-20T20:18:17.553Z,3.63
2019-03-20T20:20:53.208Z,4.13
2019-03-20T20:23:30.258Z,4.17
2019-03-20T20:26:01.052Z,3.33
2019-03-20T20:28:33.016Z,3.73
2019-03-20T20:31:10.485Z,3.23
2019-03-20T20:33:39.667Z,3.13
2019-03-20T20:36:12.807Z,3.33
2019-03-20T20:38:45.365Z,3.43
2019-03-20T20:41:17.750Z,4.47
2019-03-20T20:43:54.334Z,4.17
2019-03-20T20:46:29.307Z,3.70
2019-03-20T20:49:06.317Z,3.60
2019-03-20T20:51:37.302Z,3.60
2019-03-20T20:54:08.347Z,4.00
2019-03-20T20:56:48.873Z,3.40
2019-03-20T20:59:19.994Z,3.27
2019-03-20T21:01:53.583Z,3.20
2019-03-20T21:04:29.445Z,3.70
2019-03-20T21:07:00.392Z,3.83
2019-03-20T21:09:31.467Z,3.90
2019-03-20T21:12:02.194Z,4.20
2019-03-20T21:14:34.478Z,4.03
2019-03-20T21:17:06.947Z,4.30
2019-03-20T21:19:40.590Z,4.00
2019-03-20T21:22:51.088Z,4.07
2019-03-20T21:25:42.355Z,4.20
2019-03-20T21:29:05.586Z,4.03
2019-03-20T21:31:53.964Z,4.60
2019-03-20T21:35:00.560Z,3.97
2019-03-20T21:38:03.769Z,4.70
2019-03-20T21:41:01.081Z,4.53
2019-03-20T21:44:12.914Z,3.93
2019-03-20T21:47:16.961Z,4.57
2019-03-20T21:49:48.393Z,4.13
2019-03-20T21:52:25.000Z,3.30
2019-03-20T21:55:31.880Z,3.97
2019-03-20T21:58:13.601Z,4.00
2019-03-20T22:01:30.311Z,3.37
2019-03-20T22:04:04.253Z,3.03
2019-03-20T22:07:22.101Z,3.20
2019-03-20T22:10:28.183Z,3.90
2019-03-20T22:13:30.622Z,3.63
2019-03-20T22:16:53.319Z,3.80
2019-03-20T22:20:04.571Z,3.47
2019-03-20T22:22:56.563Z,4.30
2019-03-20T22:26:26.168Z,4.33
2019-03-20T22:29:32.814Z,3.50
2019-03-20T22:32:57.174Z,4.20
2019-03-20T22:36:12.645Z,4.00
2019-03-20T22:39:27.321Z,3.70
2019-03-20T22:42:38.104Z,3.47
2019-03-20T22:45:57.188Z,3.83
2019-03-20T22:48:50.222Z,4.10
2019-03-20T22:51:55.550Z,3.87
2019-03-20T22:55:14.105Z,4.40
2019-03-20T22:58:06.106Z,4.40
2019-03-20T23:00:40.592Z,3.83
2019-03-20T23:03:23.937Z,4.30
2019-03-20T23:05:56.467Z,3.83
2019-03-20T23:08:31.349Z,4.53
2019-03-20T23:11:02.801Z,4.10
2019-03-20T23:13:41.395Z,4.37
2019-03-20T23:16:08.592Z,4.30
2019-03-20T23:18:40.464Z,4.30
2019-03-20T23:21:11.813Z,4.73
2019-03-20T23:23:43.298Z,3.77
2019-03-20T23:26:15.536Z,3.93
2019-03-20T23:28:46.938Z,4.40
2019-03-20T23:31:18.708Z,4.50
2019-03-20T23:33:54.085Z,4.93
2019-03-20T23:36:25.809Z,4.70
2019-03-20T23:38:57.564Z,4.80
2019-03-20T23:41:31.259Z,3.87
2019-03-20T23:44:02.599Z,4.33
2019-03-20T23:46:33.860Z,4.10
2019-03-20T23:49:13.249Z,4.17
2019-03-20T23:51:46.300Z,3.87
2019-03-20T23:54:20.286Z,4.37
2019-03-20T23:56:52.221Z,5.17
2019-03-20T23:59:25.791Z,3.77
